TAF TISX
TISX 072332Z 0800/0824 06008KT P6SM SKC FM081400 07012KT P6SM FEW030 FM082100 06010KT P6SM SCT028=
METAR TISX
WC TISX
WS TISX
WV TISX